Time;durP1;ratioP1;P1;durP2;ratioP2;P2;SDS_P1;SDS_P2;PMS_P1;PMS_P2;Temp;Humidity;BMP_temperature;BMP_pressure;BME280_temperature;BME280_humidity;BME280_pressure;Samples;Min_cycle;Max_cycle;Signal;HPM_P1;HPM_P2
2021/10/12 00:00:38;;;;;;;24.77;14.60;;;9.70;99.80;;;;;;6092571;23;20784;-88
2021/10/12 00:03:06;;;;;;;25.73;14.40;;;9.80;99.80;;;;;;6088138;23;20473;-88
2021/10/12 00:05:35;;;;;;;22.67;14.87;;;9.80;99.80;;;;;;6144770;23;21120;-88
2021/10/12 00:08:03;;;;;;;25.40;15.20;;;9.70;99.80;;;;;;6129108;23;20439;-87
2021/10/12 00:10:31;;;;;;;26.30;15.23;;;9.60;99.80;;;;;;6122188;23;20434;-88
2021/10/12 00:12:59;;;;;;;23.40;15.37;;;9.60;99.80;;;;;;6118357;23;20452;-88
2021/10/12 00:15:29;;;;;;;22.73;14.90;;;9.50;99.80;;;;;;6113457;23;20874;-87
2021/10/12 00:17:57;;;;;;;27.27;15.13;;;9.50;99.80;;;;;;6132305;23;20952;-88
2021/10/12 00:20:25;;;;;;;25.23;16.70;;;9.50;99.80;;;;;;6144966;23;20439;-87
2021/10/12 00:22:53;;;;;;;30.00;17.80;;;9.40;99.80;;;;;;6144468;23;20512;-87
2021/10/12 00:25:21;;;;;;;29.77;20.37;;;9.40;99.80;;;;;;6112785;23;20513;-88
2021/10/12 00:27:50;;;;;;;28.37;18.17;;;9.30;99.80;;;;;;6141217;23;20461;-87
2021/10/12 00:30:18;;;;;;;28.87;17.90;;;9.20;99.80;;;;;;6133368;23;20444;-88
2021/10/12 00:32:47;;;;;;;33.63;19.30;;;9.20;99.80;;;;;;6120936;23;20449;-87
2021/10/12 00:35:15;;;;;;;33.30;20.47;;;9.10;99.80;;;;;;6115595;23;20432;-88
2021/10/12 00:37:43;;;;;;;29.10;17.83;;;9.00;99.80;;;;;;6145764;23;20435;-88
2021/10/12 00:40:12;;;;;;;35.27;21.37;;;9.00;99.80;;;;;;6136535;23;20750;-88
2021/10/12 00:42:40;;;;;;;33.77;20.03;;;9.00;99.80;;;;;;6133076;23;20440;-87
2021/10/12 00:45:10;;;;;;;29.47;18.57;;;9.00;99.80;;;;;;6133030;23;20434;-88
2021/10/12 00:47:39;;;;;;;26.67;17.50;;;9.00;99.80;;;;;;6140492;23;20435;-87
2021/10/12 00:50:09;;;;;;;29.90;17.70;;;9.00;99.80;;;;;;6110359;23;20439;-87
2021/10/12 00:52:37;;;;;;;24.83;14.50;;;9.00;99.80;;;;;;6135697;23;20453;-88
2021/10/12 00:55:06;;;;;;;31.93;16.47;;;9.10;99.80;;;;;;6138165;23;20433;-88
2021/10/12 00:57:33;;;;;;;23.17;15.47;;;9.20;99.80;;;;;;6129017;23;20782;-87
2021/10/12 01:00:02;;;;;;;20.33;14.00;;;9.30;99.80;;;;;;6096779;23;20518;-87
2021/10/12 01:02:31;;;;;;;34.97;16.13;;;9.30;99.80;;;;;;6097635;23;20979;-87
2021/10/12 01:05:00;;;;;;;28.80;17.90;;;9.40;99.80;;;;;;6133333;23;20495;-87
2021/10/12 01:07:29;;;;;;;29.37;16.87;;;9.40;99.80;;;;;;6144821;23;20474;-87
2021/10/12 01:09:57;;;;;;;31.53;17.27;;;9.30;99.80;;;;;;6146084;23;20466;-87
2021/10/12 01:12:25;;;;;;;29.63;15.37;;;9.40;99.80;;;;;;6108696;23;21039;-88
2021/10/12 01:14:53;;;;;;;25.17;16.40;;;9.40;99.80;;;;;;6099511;23;20790;-87
2021/10/12 01:17:21;;;;;;;26.53;15.10;;;9.40;99.80;;;;;;6117534;23;20447;-88
2021/10/12 01:19:49;;;;;;;24.70;15.37;;;9.40;99.80;;;;;;6118773;23;20442;-88
2021/10/12 01:22:19;;;;;;;22.00;12.90;;;9.40;99.80;;;;;;6104551;23;20447;-88
2021/10/12 01:24:47;;;;;;;25.47;13.57;;;9.40;99.80;;;;;;6097019;23;20436;-88
2021/10/12 01:27:15;;;;;;;16.53;11.10;;;9.50;99.80;;;;;;6098138;23;20447;-87
2021/10/12 01:29:43;;;;;;;18.63;11.17;;;9.60;99.80;;;;;;6120342;23;20439;-87
2021/10/12 01:32:10;;;;;;;27.13;11.60;;;9.60;99.80;;;;;;6100128;23;20452;-88
2021/10/12 01:34:38;;;;;;;16.70;11.67;;;9.70;99.80;;;;;;6133722;23;20440;-87
2021/10/12 01:37:06;;;;;;;23.13;10.77;;;9.70;99.80;;;;;;6145391;23;20446;-88
2021/10/12 01:39:36;;;;;;;17.47;10.77;;;9.80;99.80;;;;;;6144532;23;20449;-88
2021/10/12 01:42:05;;;;;;;16.70;9.80;;;9.80;99.80;;;;;;6145324;23;20447;-88
2021/10/12 01:44:33;;;;;;;14.83;9.67;;;9.80;99.80;;;;;;6111064;23;20439;-88
2021/10/12 01:47:01;;;;;;;15.90;10.23;;;9.80;99.80;;;;;;6116468;23;20453;-88
2021/10/12 01:49:29;;;;;;;13.13;9.47;;;9.80;99.80;;;;;;6143562;23;20449;-87
2021/10/12 01:51:57;;;;;;;15.87;9.97;;;9.80;99.80;;;;;;6147164;23;20462;-87
2021/10/12 01:54:26;;;;;;;16.80;9.57;;;9.80;99.80;;;;;;6111087;23;20450;-88
2021/10/12 01:56:56;;;;;;;16.17;10.60;;;9.80;99.80;;;;;;6127014;23;20443;-87
2021/10/12 01:59:24;;;;;;;22.33;11.30;;;9.80;99.80;;;;;;6116325;23;20429;-88
2021/10/12 02:01:52;;;;;;;16.50;11.10;;;9.80;99.80;;;;;;6111298;23;20786;-87
2021/10/12 02:04:20;;;;;;;23.10;11.43;;;9.80;99.80;;;;;;6141688;23;20781;-88
2021/10/12 02:06:48;;;;;;;14.10;10.40;;;9.80;99.80;;;;;;6145980;23;20439;-88
2021/10/12 02:09:16;;;;;;;21.30;10.40;;;9.80;99.80;;;;;;6138685;23;20821;-87
2021/10/12 02:11:44;;;;;;;14.90;10.03;;;9.90;99.80;;;;;;6123266;23;20438;-87
2021/10/12 02:14:13;;;;;;;17.00;9.37;;;9.90;99.80;;;;;;6126399;23;20447;-88
2021/10/12 02:16:41;;;;;;;13.43;9.77;;;9.90;99.80;;;;;;6101123;23;20864;-88
2021/10/12 02:19:09;;;;;;;13.60;9.30;;;9.90;99.80;;;;;;6125842;23;20483;-88
2021/10/12 02:21:38;;;;;;;21.07;9.80;;;9.90;99.80;;;;;;6138910;23;20440;-87
2021/10/12 02:24:06;;;;;;;19.33;10.17;;;9.90;99.80;;;;;;6132722;23;20425;-88
2021/10/12 02:26:34;;;;;;;15.03;9.67;;;9.90;99.80;;;;;;6111822;23;20504;-88
2021/10/12 02:29:02;;;;;;;16.97;10.00;;;9.90;99.80;;;;;;6114404;23;20443;-87
2021/10/12 02:31:32;;;;;;;15.73;8.80;;;9.90;99.80;;;;;;6130607;23;20492;-87
2021/10/12 02:34:00;;;;;;;15.17;8.87;;;9.90;99.80;;;;;;6139230;23;20445;-88
2021/10/12 02:36:28;;;;;;;15.63;8.07;;;9.90;99.80;;;;;;6145120;23;20440;-88
2021/10/12 02:38:56;;;;;;;11.40;7.87;;;9.90;99.80;;;;;;6146544;23;20838;-88
2021/10/12 02:41:24;;;;;;;12.90;7.30;;;10.00;99.80;;;;;;6131016;23;20447;-88
2021/10/12 02:43:52;;;;;;;14.80;7.27;;;10.00;99.80;;;;;;6130151;23;20462;-88
2021/10/12 02:46:20;;;;;;;32.23;7.67;;;10.00;99.80;;;;;;6135433;23;20440;-88
2021/10/12 02:48:49;;;;;;;11.43;6.70;;;10.10;99.80;;;;;;6135055;23;20511;-88
2021/10/12 02:51:17;;;;;;;10.10;6.67;;;10.10;99.80;;;;;;6103805;23;20498;-87
2021/10/12 02:53:45;;;;;;;8.27;6.30;;;10.10;99.80;;;;;;6119515;23;20522;-87
2021/10/12 02:56:13;;;;;;;12.87;5.90;;;10.10;99.80;;;;;;6140858;23;20440;-87
2021/10/12 02:58:41;;;;;;;9.60;5.17;;;10.10;99.80;;;;;;6094552;23;20474;-87
2021/10/12 03:01:09;;;;;;;8.50;5.33;;;10.10;99.80;;;;;;6084277;23;20441;-87
2021/10/12 03:03:37;;;;;;;12.47;5.43;;;10.10;99.80;;;;;;6139616;23;20443;-87
2021/10/12 03:06:07;;;;;;;16.60;5.50;;;10.10;99.80;;;;;;6146972;23;20760;-87
2021/10/12 03:08:35;;;;;;;10.23;5.30;;;10.10;99.80;;;;;;6143348;23;20784;-87
2021/10/12 03:11:02;;;;;;;10.07;5.57;;;10.20;99.80;;;;;;6125236;23;20452;-87
2021/10/12 03:13:30;;;;;;;11.97;5.20;;;10.20;99.80;;;;;;6107702;23;20752;-87
2021/10/12 03:15:58;;;;;;;11.87;5.57;;;10.20;99.80;;;;;;6120358;23;20436;-87
2021/10/12 03:18:30;;;;;;;9.93;6.10;;;10.20;99.80;;;;;;6138962;23;20435;-86
2021/10/12 03:20:58;;;;;;;14.43;7.97;;;10.20;99.80;;;;;;6146151;23;20441;-86
2021/10/12 03:23:28;;;;;;;17.90;8.47;;;10.10;99.80;;;;;;6087591;23;20424;-86
2021/10/12 03:25:56;;;;;;;13.30;8.40;;;10.10;99.80;;;;;;6118401;23;20441;-86
2021/10/12 03:28:24;;;;;;;16.90;9.87;;;10.10;99.80;;;;;;6110719;23;20455;-85
2021/10/12 03:30:52;;;;;;;14.27;9.77;;;10.00;99.80;;;;;;6137661;23;20440;-86
2021/10/12 03:33:20;;;;;;;25.43;10.57;;;10.00;99.80;;;;;;6135561;23;20910;-86
2021/10/12 03:35:54;;;;;;;18.17;11.10;;;9.90;99.80;;;;;;6144253;23;20445;-86
2021/10/12 03:38:23;;;;;;;15.50;10.10;;;9.90;99.80;;;;;;6145550;23;20996;-87
2021/10/12 03:40:53;;;;;;;17.47;11.40;;;9.80;99.80;;;;;;6144400;23;20440;-87
2021/10/12 03:43:23;;;;;;;19.70;12.80;;;9.90;99.80;;;;;;6132742;23;20499;-86
2021/10/12 03:45:51;;;;;;;22.23;13.33;;;9.80;99.80;;;;;;6138892;23;20450;-85
2021/10/12 03:48:19;;;;;;;26.90;16.57;;;9.80;99.80;;;;;;6132179;23;20444;-86
2021/10/12 03:50:47;;;;;;;24.87;15.27;;;9.70;99.80;;;;;;6146228;23;20447;-86
2021/10/12 03:53:15;;;;;;;24.67;15.83;;;9.60;99.80;;;;;;6138522;23;20455;-86
2021/10/12 03:55:43;;;;;;;26.53;14.63;;;9.50;99.80;;;;;;6121419;23;20446;-86
2021/10/12 03:58:12;;;;;;;26.20;16.33;;;9.40;99.80;;;;;;6088834;23;20438;-86
2021/10/12 04:00:40;;;;;;;23.60;15.03;;;9.40;99.80;;;;;;6049923;23;21054;-86
2021/10/12 04:03:08;;;;;;;24.60;15.80;;;9.30;99.80;;;;;;6118040;23;20442;-86
2021/10/12 04:05:37;;;;;;;20.80;14.03;;;9.30;99.80;;;;;;6143125;23;20774;-86
2021/10/12 04:08:05;;;;;;;20.80;13.87;;;9.30;99.80;;;;;;6145230;23;20463;-86
2021/10/12 04:10:33;;;;;;;24.73;14.23;;;9.30;99.80;;;;;;6142068;23;20449;-86
2021/10/12 04:13:03;;;;;;;27.43;13.30;;;9.30;99.80;;;;;;6143789;23;20443;-86
2021/10/12 04:15:33;;;;;;;18.33;13.23;;;9.30;99.80;;;;;;6091570;23;20439;-86
2021/10/12 04:18:01;;;;;;;22.93;15.07;;;9.30;99.80;;;;;;6120475;23;20519;-87
2021/10/12 04:20:29;;;;;;;19.73;12.20;;;9.30;99.80;;;;;;6145711;23;20760;-86
2021/10/12 04:22:57;;;;;;;20.43;12.43;;;9.30;99.80;;;;;;6141912;23;20450;-86
2021/10/12 04:25:26;;;;;;;21.57;13.27;;;9.40;99.80;;;;;;6131074;23;20435;-86
2021/10/12 04:27:55;;;;;;;22.03;13.27;;;9.40;99.80;;;;;;6097280;23;20447;-86
2021/10/12 04:30:23;;;;;;;19.30;12.60;;;9.40;99.80;;;;;;6073218;23;20448;-87
2021/10/12 04:32:52;;;;;;;20.60;13.20;;;9.40;99.80;;;;;;6106653;23;20837;-87
2021/10/12 04:35:20;;;;;;;19.90;11.60;;;9.40;99.80;;;;;;6086096;23;20429;-87
2021/10/12 04:37:48;;;;;;;23.17;12.00;;;9.40;99.80;;;;;;6099848;23;20446;-86
2021/10/12 04:40:16;;;;;;;20.93;13.80;;;9.40;99.80;;;;;;6108109;23;20780;-86
2021/10/12 04:42:45;;;;;;;20.20;13.87;;;9.50;99.80;;;;;;6091347;23;20507;-86
2021/10/12 04:45:13;;;;;;;25.23;16.17;;;9.50;99.80;;;;;;6107799;23;20448;-86
2021/10/12 04:47:42;;;;;;;43.57;26.60;;;9.50;99.80;;;;;;6133796;23;20442;-86
2021/10/12 04:50:11;;;;;;;32.00;21.57;;;9.50;99.80;;;;;;6145269;23;20438;-87
2021/10/12 04:52:42;;;;;;;31.40;19.73;;;9.50;99.80;;;;;;6142592;23;20564;-87
2021/10/12 04:55:10;;;;;;;31.77;19.70;;;9.50;99.80;;;;;;6145873;23;20950;-86
2021/10/12 04:57:38;;;;;;;27.27;14.00;;;9.50;99.80;;;;;;6094380;23;20955;-86
2021/10/12 05:00:08;;;;;;;24.63;13.90;;;9.50;99.80;;;;;;6088244;23;20495;-86
2021/10/12 05:02:36;;;;;;;20.30;12.80;;;9.50;99.80;;;;;;6102286;23;20447;-86
2021/10/12 05:05:05;;;;;;;25.80;12.53;;;9.50;99.80;;;;;;6119564;23;20543;-86
2021/10/12 05:07:34;;;;;;;22.80;11.00;;;9.60;99.80;;;;;;6139796;23;20436;-86
2021/10/12 05:10:02;;;;;;;23.00;11.63;;;9.70;99.80;;;;;;6124681;23;20911;-86
2021/10/12 05:12:30;;;;;;;18.87;10.93;;;9.90;99.80;;;;;;6128758;23;20447;-87
2021/10/12 05:14:58;;;;;;;23.50;11.20;;;9.80;99.80;;;;;;6132241;23;20663;-87
2021/10/12 05:17:32;;;;;;;25.50;11.83;;;9.80;99.80;;;;;;6097504;23;20435;-87
2021/10/12 05:20:01;;;;;;;22.13;11.97;;;9.80;99.80;;;;;;6146295;23;20527;-87
2021/10/12 05:22:28;;;;;;;26.00;11.77;;;9.80;99.80;;;;;;6146450;23;20443;-87
2021/10/12 05:24:58;;;;;;;23.63;10.50;;;9.80;99.80;;;;;;6141260;23;20877;-84
2021/10/12 05:27:26;;;;;;;19.60;10.03;;;9.80;99.80;;;;;;6139988;23;21119;-84
2021/10/12 05:29:54;;;;;;;18.00;10.90;;;9.80;99.80;;;;;;6136540;23;20439;-84
2021/10/12 05:32:22;;;;;;;22.50;11.47;;;9.80;99.80;;;;;;6130760;23;20444;-84
2021/10/12 05:34:50;;;;;;;20.57;11.57;;;9.80;99.80;;;;;;6144277;23;20781;-84
2021/10/12 05:37:19;;;;;;;20.23;11.17;;;9.80;99.80;;;;;;6111294;23;20799;-83
2021/10/12 05:39:47;;;;;;;19.43;11.23;;;9.80;99.80;;;;;;6080008;23;21283;-84
2021/10/12 05:42:16;;;;;;;25.73;11.17;;;9.80;99.80;;;;;;6104303;23;20435;-83
2021/10/12 05:44:44;;;;;;;19.70;10.30;;;9.80;99.80;;;;;;6099946;23;20431;-84
2021/10/12 05:47:12;;;;;;;18.37;10.60;;;9.80;99.80;;;;;;6099933;23;20443;-83
2021/10/12 05:49:41;;;;;;;19.20;10.60;;;9.80;99.80;;;;;;6114046;23;20444;-83
2021/10/12 05:52:12;;;;;;;22.60;11.13;;;9.80;99.80;;;;;;6116641;23;20786;-83
2021/10/12 05:54:47;;;;;;;18.70;11.13;;;9.80;99.80;;;;;;6114385;23;20438;-83
2021/10/12 05:57:22;;;;;;;20.70;10.50;;;9.80;99.80;;;;;;6114947;23;20416;-83
2021/10/12 05:59:50;;;;;;;22.90;11.00;;;9.90;99.80;;;;;;6085377;23;20435;-83
2021/10/12 06:02:18;;;;;;;27.87;11.47;;;9.90;99.80;;;;;;6084647;23;20450;-83
2021/10/12 06:04:47;;;;;;;16.50;9.33;;;9.90;99.80;;;;;;6102245;23;20515;-83
2021/10/12 06:07:14;;;;;;;17.23;8.83;;;9.90;99.80;;;;;;6114463;23;20461;-83
2021/10/12 06:09:42;;;;;;;20.90;10.63;;;9.90;99.80;;;;;;6091320;23;20446;-83
2021/10/12 06:12:10;;;;;;;18.77;10.20;;;9.90;99.80;;;;;;6095072;23;20448;-83
2021/10/12 06:14:40;;;;;;;16.90;10.30;;;9.90;99.80;;;;;;6108774;23;20464;-83
2021/10/12 06:17:08;;;;;;;18.13;9.80;;;9.90;99.80;;;;;;6104366;23;20445;-83
2021/10/12 06:19:36;;;;;;;21.63;10.60;;;9.90;99.80;;;;;;6093247;23;20448;-83
2021/10/12 06:22:04;;;;;;;14.53;9.10;;;9.90;99.80;;;;;;6102368;23;20775;-83
2021/10/12 06:24:32;;;;;;;19.90;12.30;;;9.90;99.80;;;;;;6089082;23;20464;-83
2021/10/12 06:27:00;;;;;;;21.53;10.70;;;9.90;99.80;;;;;;6085470;23;20795;-84
2021/10/12 06:29:28;;;;;;;19.43;10.20;;;9.90;99.80;;;;;;6101471;23;20753;-84
2021/10/12 06:31:57;;;;;;;23.50;12.30;;;10.00;99.80;;;;;;6088390;23;20540;-85
2021/10/12 06:34:25;;;;;;;16.73;9.83;;;10.00;99.80;;;;;;6096601;23;20955;-85
2021/10/12 06:36:53;;;;;;;18.33;10.20;;;10.10;99.80;;;;;;6114102;23;20456;-85
2021/10/12 06:39:21;;;;;;;20.77;12.47;;;10.10;99.80;;;;;;6117022;23;20925;-85
2021/10/12 06:41:49;;;;;;;21.83;11.37;;;10.10;99.80;;;;;;6099929;23;20495;-85
2021/10/12 06:44:17;;;;;;;22.07;9.57;;;10.10;99.80;;;;;;6093521;23;20449;-85
2021/10/12 06:46:46;;;;;;;19.87;10.57;;;10.20;99.80;;;;;;6091818;23;20921;-84
2021/10/12 06:49:15;;;;;;;20.13;10.67;;;10.20;99.80;;;;;;6085345;23;20443;-85
2021/10/12 06:51:43;;;;;;;17.07;10.43;;;10.20;99.80;;;;;;6105158;23;20470;-85
2021/10/12 06:54:18;;;;;;;19.40;11.67;;;10.20;99.80;;;;;;6093779;23;20464;-85
2021/10/12 06:56:45;;;;;;;18.90;11.60;;;10.30;99.80;;;;;;6103717;23;20465;-85
2021/10/12 06:59:13;;;;;;;21.40;10.60;;;10.30;99.80;;;;;;6091618;23;20512;-84
2021/10/12 07:01:42;;;;;;;21.30;9.43;;;10.30;99.80;;;;;;6078117;23;20443;-84
2021/10/12 07:04:10;;;;;;;14.63;9.67;;;10.40;99.80;;;;;;6108794;23;20967;-84
2021/10/12 07:06:39;;;;;;;18.33;11.13;;;10.50;99.80;;;;;;6117397;23;20834;-85
2021/10/12 07:09:07;;;;;;;18.57;11.37;;;10.50;99.80;;;;;;6115576;23;20443;-84
2021/10/12 07:11:35;;;;;;;20.80;11.50;;;10.50;99.80;;;;;;6110185;23;20767;-85
2021/10/12 07:14:03;;;;;;;19.60;11.43;;;10.60;99.80;;;;;;6103506;23;20957;-85
2021/10/12 07:16:31;;;;;;;21.60;11.90;;;10.60;99.80;;;;;;6104927;23;20785;-85
2021/10/12 07:18:59;;;;;;;20.07;11.30;;;10.70;99.80;;;;;;6110911;23;20444;-84
2021/10/12 07:21:27;;;;;;;20.30;12.90;;;10.70;99.80;;;;;;6113797;23;20440;-85
2021/10/12 07:23:57;;;;;;;24.10;13.10;;;10.80;99.80;;;;;;6103811;23;20444;-85
2021/10/12 07:26:25;;;;;;;29.30;16.70;;;10.90;99.80;;;;;;6099623;23;20966;-85
2021/10/12 07:28:55;;;;;;;19.23;12.53;;;11.00;99.80;;;;;;6097613;23;20759;-84
2021/10/12 07:31:24;;;;;;;21.23;11.20;;;11.00;99.80;;;;;;6108987;23;20437;-85
2021/10/12 07:33:52;;;;;;;22.40;14.23;;;11.00;99.80;;;;;;6102636;23;20468;-84
2021/10/12 07:36:20;;;;;;;31.90;16.07;;;11.00;99.80;;;;;;6111753;23;20785;-84
2021/10/12 07:38:48;;;;;;;26.63;15.03;;;11.00;99.80;;;;;;6114802;23;20926;-84
2021/10/12 07:41:29;;;;;;;20.97;12.80;;;11.10;99.80;;;;;;6114742;23;20443;-84
2021/10/12 07:43:58;;;;;;;31.43;14.20;;;11.10;99.80;;;;;;6095159;23;20968;-85
2021/10/12 07:46:26;;;;;;;28.47;15.90;;;11.00;99.80;;;;;;6103238;23;20443;-84
2021/10/12 07:48:58;;;;;;;23.17;13.27;;;11.10;99.80;;;;;;6101460;23;20481;-85
2021/10/12 07:51:41;;;;;;;20.20;12.30;;;11.10;99.80;;;;;;6114816;23;20460;-84
2021/10/12 07:54:13;;;;;;;25.77;12.40;;;11.20;99.80;;;;;;6096865;23;20941;-84
2021/10/12 07:56:43;;;;;;;21.03;10.80;;;11.20;99.80;;;;;;6095188;23;20475;-84
2021/10/12 07:59:14;;;;;;;25.77;12.17;;;11.20;99.80;;;;;;6102721;23;20440;-85
2021/10/12 08:01:42;;;;;;;23.00;12.57;;;11.20;99.80;;;;;;6070072;23;20441;-84
2021/10/12 08:04:11;;;;;;;20.17;11.30;;;11.20;99.80;;;;;;6092909;23;20451;-84
2021/10/12 08:06:39;;;;;;;16.77;11.00;;;11.20;99.80;;;;;;6081776;23;21046;-84
2021/10/12 08:09:07;;;;;;;18.10;11.30;;;11.20;99.80;;;;;;6099561;23;20433;-85
2021/10/12 08:11:35;;;;;;;22.13;11.90;;;11.20;99.80;;;;;;6106208;23;20524;-85
2021/10/12 08:14:06;;;;;;;23.13;11.67;;;11.30;99.80;;;;;;6101545;23;20528;-84
2021/10/12 08:16:35;;;;;;;22.67;11.20;;;11.40;99.80;;;;;;6109339;23;20449;-84
2021/10/12 08:19:05;;;;;;;14.73;9.80;;;11.40;99.80;;;;;;6107731;23;20437;-84
2021/10/12 08:21:33;;;;;;;19.80;10.40;;;11.40;99.80;;;;;;6114699;23;20455;-84
2021/10/12 08:24:03;;;;;;;13.73;9.53;;;11.40;99.80;;;;;;6115729;23;20525;-84
2021/10/12 08:26:31;;;;;;;16.13;11.00;;;11.40;99.80;;;;;;6105049;23;20455;-85
2021/10/12 08:28:59;;;;;;;18.37;10.03;;;11.30;99.80;;;;;;6100755;23;20985;-85
2021/10/12 08:31:28;;;;;;;14.73;9.47;;;11.20;99.80;;;;;;6110025;23;20552;-85
2021/10/12 08:33:56;;;;;;;17.67;9.63;;;11.30;99.80;;;;;;6100508;23;20449;-84
2021/10/12 08:36:24;;;;;;;16.30;10.07;;;11.30;99.80;;;;;;6104229;23;20764;-84
2021/10/12 08:39:08;;;;;;;20.00;9.53;;;11.30;99.80;;;;;;6105813;23;20434;-84
2021/10/12 08:41:38;;;;;;;17.40;8.53;;;11.40;99.80;;;;;;6101316;23;20436;-84
2021/10/12 08:44:07;;;;;;;16.50;9.43;;;11.40;99.80;;;;;;6103854;23;20442;-84
2021/10/12 08:46:38;;;;;;;13.67;7.80;;;11.50;99.80;;;;;;6073837;23;20488;-85
2021/10/12 08:49:06;;;;;;;13.23;8.73;;;11.70;99.80;;;;;;6109642;23;20485;-84
2021/10/12 08:51:34;;;;;;;10.97;8.27;;;11.80;99.80;;;;;;6113269;23;20441;-84
2021/10/12 08:54:02;;;;;;;17.10;8.50;;;11.90;99.80;;;;;;6113329;23;20440;-85
2021/10/12 08:56:30;;;;;;;14.30;8.30;;;11.80;99.80;;;;;;6112058;23;20441;-84
2021/10/12 08:58:58;;;;;;;15.20;8.53;;;11.60;99.80;;;;;;6098693;23;20435;-85
2021/10/12 09:01:28;;;;;;;13.30;8.13;;;11.50;99.80;;;;;;6076881;23;20443;-84
2021/10/12 09:04:04;;;;;;;13.20;7.43;;;11.40;99.80;;;;;;6105505;23;20534;-84
2021/10/12 09:06:36;;;;;;;15.03;8.27;;;11.50;99.80;;;;;;6108551;23;20786;-84
2021/10/12 09:09:15;;;;;;;10.93;7.70;;;11.70;99.80;;;;;;6095076;23;20437;-84
2021/10/12 09:11:45;;;;;;;11.33;8.10;;;11.80;99.80;;;;;;6096048;23;20436;-85
2021/10/12 09:14:13;;;;;;;15.70;8.10;;;12.00;99.80;;;;;;6100266;23;20504;-84
2021/10/12 09:16:43;;;;;;;13.93;7.27;;;12.10;99.80;;;;;;6099817;23;21032;-84
2021/10/12 09:19:14;;;;;;;14.03;7.23;;;12.00;99.80;;;;;;6110723;23;21191;-85
2021/10/12 09:21:44;;;;;;;9.37;6.40;;;11.90;99.80;;;;;;6115075;23;20492;-84
2021/10/12 09:24:14;;;;;;;13.57;6.67;;;11.90;99.80;;;;;;6115159;23;20440;-84
2021/10/12 09:26:44;;;;;;;14.50;6.40;;;12.00;99.80;;;;;;6112932;23;20448;-84
2021/10/12 09:29:18;;;;;;;9.37;5.90;;;12.00;99.80;;;;;;6084079;23;20512;-84
2021/10/12 09:31:47;;;;;;;13.07;6.37;;;12.20;99.80;;;;;;6087350;23;20434;-84
2021/10/12 09:34:19;;;;;;;16.33;7.10;;;12.10;99.80;;;;;;6101405;23;20434;-85
2021/10/12 09:36:48;;;;;;;13.87;6.93;;;12.10;99.80;;;;;;6113278;23;20444;-85
2021/10/12 09:39:18;;;;;;;13.03;6.83;;;12.10;99.80;;;;;;6097455;23;20454;-84
2021/10/12 09:41:47;;;;;;;10.30;6.57;;;12.10;99.80;;;;;;6088332;23;20445;-84
2021/10/12 09:44:17;;;;;;;11.50;6.90;;;12.00;99.80;;;;;;6084203;23;20524;-84
2021/10/12 09:46:46;;;;;;;7.77;6.20;;;11.90;99.80;;;;;;6037767;23;20426;-84
2021/10/12 09:49:18;;;;;;;8.73;6.57;;;11.90;99.80;;;;;;6096295;23;20450;-84
2021/10/12 09:51:57;;;;;;;11.00;6.50;;;12.10;99.80;;;;;;6107720;23;20452;-84
2021/10/12 09:54:28;;;;;;;9.47;6.00;;;12.10;99.80;;;;;;6108411;23;20449;-84
2021/10/12 09:56:58;;;;;;;11.13;6.23;;;12.20;99.80;;;;;;6109713;23;20439;-84
2021/10/12 09:59:26;;;;;;;11.40;5.87;;;12.20;99.80;;;;;;6111093;23;20444;-84
2021/10/12 10:01:55;;;;;;;9.07;6.40;;;12.20;99.80;;;;;;6110640;23;20451;-84
2021/10/12 10:04:28;;;;;;;7.73;5.87;;;12.30;99.80;;;;;;6110916;23;20438;-84
2021/10/12 10:07:03;;;;;;;8.13;5.80;;;12.40;99.80;;;;;;6115758;23;20448;-84
2021/10/12 10:09:32;;;;;;;9.27;6.03;;;12.50;99.80;;;;;;6111035;23;20532;-84
2021/10/12 10:12:01;;;;;;;8.93;6.30;;;12.50;99.80;;;;;;6099841;23;20452;-85
2021/10/12 10:14:30;;;;;;;8.93;5.47;;;12.60;99.80;;;;;;6104273;23;21040;-85
2021/10/12 10:17:00;;;;;;;7.33;5.47;;;12.60;99.80;;;;;;6094741;23;20448;-84
2021/10/12 10:19:33;;;;;;;8.87;5.80;;;12.70;99.80;;;;;;6101539;23;20520;-84
2021/10/12 10:22:04;;;;;;;14.53;6.33;;;12.40;99.80;;;;;;6104225;23;20520;-84
2021/10/12 10:24:44;;;;;;;10.03;5.37;;;12.30;99.80;;;;;;6098619;23;20508;-85
2021/10/12 10:27:33;;;;;;;9.63;5.50;;;12.10;99.80;;;;;;6104207;23;20965;-84
2021/10/12 10:30:21;;;;;;;10.80;5.53;;;12.00;99.80;;;;;;6096397;23;20436;-84
2021/10/12 10:32:51;;;;;;;6.63;5.10;;;12.00;99.80;;;;;;6090892;23;20444;-85
2021/10/12 10:35:38;;;;;;;9.07;5.43;;;11.80;99.80;;;;;;6112257;23;20445;-84
2021/10/12 10:38:25;;;;;;;8.50;5.63;;;11.70;99.80;;;;;;6117578;23;20453;-85
2021/10/12 10:41:24;;;;;;;7.97;5.33;;;11.90;99.80;;;;;;6114471;23;20541;-85
2021/10/12 10:43:57;;;;;;;7.43;5.30;;;11.90;99.80;;;;;;6097445;23;20541;-85
2021/10/12 10:46:49;;;;;;;8.37;5.30;;;12.00;99.80;;;;;;6097581;23;20442;-85
2021/10/12 10:49:19;;;;;;;6.90;5.37;;;12.10;99.80;;;;;;6082626;23;20479;-85
2021/10/12 10:51:56;;;;;;;7.60;4.93;;;12.10;99.80;;;;;;6101957;23;20525;-85
2021/10/12 10:55:03;;;;;;;6.90;5.17;;;12.20;99.80;;;;;;6100052;23;20445;-84
2021/10/12 10:57:32;;;;;;;8.13;4.93;;;12.20;99.80;;;;;;6106421;23;20560;-85
2021/10/12 11:00:25;;;;;;;7.13;5.20;;;12.20;99.80;;;;;;6068058;23;20517;-85
2021/10/12 11:02:55;;;;;;;9.63;4.80;;;12.10;99.80;;;;;;6065849;23;20434;-85
2021/10/12 11:05:37;;;;;;;5.53;4.80;;;12.20;99.80;;;;;;6111023;23;21276;-85
2021/10/12 11:08:15;;;;;;;13.83;5.30;;;12.10;99.80;;;;;;6111784;23;20438;-85
2021/10/12 11:10:44;;;;;;;6.77;5.37;;;12.10;99.80;;;;;;6116432;23;20852;-84
2021/10/12 11:13:13;;;;;;;7.50;5.07;;;12.10;99.80;;;;;;6107760;23;20536;-85
2021/10/12 11:15:49;;;;;;;8.37;5.33;;;12.20;99.80;;;;;;6079065;23;20467;-85
2021/10/12 11:18:17;;;;;;;7.93;4.57;;;12.30;99.80;;;;;;6107168;23;20961;-85
2021/10/12 11:20:46;;;;;;;11.40;5.43;;;12.20;99.80;;;;;;6117835;23;20442;-85
2021/10/12 11:23:25;;;;;;;7.63;5.40;;;12.30;99.80;;;;;;6102775;23;20451;-84
2021/10/12 11:25:59;;;;;;;7.60;4.80;;;12.10;99.80;;;;;;6110809;23;20527;-84
2021/10/12 11:28:29;;;;;;;9.37;4.90;;;12.10;99.80;;;;;;6095149;23;20449;-84
2021/10/12 11:31:01;;;;;;;6.20;4.23;;;12.10;99.80;;;;;;6106578;23;20441;-85
2021/10/12 11:33:34;;;;;;;7.53;5.13;;;12.00;99.80;;;;;;6105514;23;20448;-84
2021/10/12 11:36:04;;;;;;;8.00;4.67;;;12.10;99.80;;;;;;6115730;23;20505;-84
2021/10/12 11:38:35;;;;;;;9.00;5.20;;;12.00;99.80;;;;;;6114002;23;20452;-85
2021/10/12 11:41:18;;;;;;;11.13;5.40;;;12.00;99.80;;;;;;6114053;23;20976;-84
2021/10/12 11:43:47;;;;;;;13.10;4.97;;;12.10;99.80;;;;;;6115720;23;20821;-85
2021/10/12 11:46:27;;;;;;;7.90;4.77;;;12.00;99.80;;;;;;6098908;23;20432;-84
2021/10/12 11:49:07;;;;;;;9.07;4.10;;;12.00;99.80;;;;;;6106606;23;20445;-85
2021/10/12 11:51:35;;;;;;;7.20;4.60;;;12.00;99.80;;;;;;6113492;23;20446;-84
2021/10/12 11:54:08;;;;;;;7.97;4.63;;;12.00;99.80;;;;;;6109409;23;20441;-84
2021/10/12 11:56:38;;;;;;;7.40;4.63;;;12.00;99.80;;;;;;6101770;23;20498;-84
2021/10/12 11:59:09;;;;;;;7.90;4.40;;;12.00;99.80;;;;;;6085829;23;20953;-84
2021/10/12 12:01:39;;;;;;;5.83;5.07;;;12.00;99.80;;;;;;6093872;23;20449;-84
2021/10/12 12:04:08;;;;;;;5.57;5.07;;;11.90;99.80;;;;;;6080398;23;20958;-84
2021/10/12 12:06:38;;;;;;;8.10;4.43;;;12.00;99.80;;;;;;6093623;23;20441;-85
2021/10/12 12:09:17;;;;;;;5.37;4.87;;;12.00;99.80;;;;;;6106014;23;21033;-85
2021/10/12 12:11:45;;;;;;;8.57;5.07;;;12.00;99.80;;;;;;6106741;23;20784;-85
2021/10/12 12:14:13;;;;;;;5.63;4.57;;;12.10;99.80;;;;;;6098843;23;21153;-85
2021/10/12 12:16:41;;;;;;;7.27;4.80;;;12.10;99.80;;;;;;6085943;23;20964;-85
2021/10/12 12:19:20;;;;;;;5.00;4.10;;;12.20;99.80;;;;;;6101609;23;20444;-85
2021/10/12 12:21:49;;;;;;;4.27;3.87;;;12.10;99.80;;;;;;6113749;23;20438;-85
2021/10/12 12:24:21;;;;;;;5.30;3.07;;;12.10;99.80;;;;;;6116232;23;20437;-85
2021/10/12 12:27:00;;;;;;;5.03;4.00;;;12.20;99.80;;;;;;6110872;23;20517;-86
2021/10/12 12:29:28;;;;;;;9.73;4.17;;;12.20;99.80;;;;;;6095655;23;20436;-85
2021/10/12 12:31:59;;;;;;;4.33;3.20;;;12.30;99.80;;;;;;6093279;23;20513;-85
2021/10/12 12:34:33;;;;;;;4.70;3.90;;;12.40;99.80;;;;;;6096102;23;20500;-85
2021/10/12 12:37:03;;;;;;;4.20;3.60;;;12.50;99.80;;;;;;6093387;23;20954;-85
2021/10/12 12:39:41;;;;;;;3.43;3.13;;;12.40;99.80;;;;;;6101302;23;20438;-85
2021/10/12 12:42:29;;;;;;;5.83;3.50;;;12.50;99.80;;;;;;6106720;23;20524;-85
2021/10/12 12:45:11;;;;;;;7.83;3.63;;;12.50;99.80;;;;;;6088079;23;20518;-84
2021/10/12 12:47:50;;;;;;;4.57;3.03;;;12.50;99.80;;;;;;6097300;23;20971;-84
2021/10/12 12:50:24;;;;;;;3.93;3.43;;;12.50;99.80;;;;;;6105062;23;20468;-85
2021/10/12 12:52:52;;;;;;;4.47;3.30;;;12.40;99.80;;;;;;6113673;23;21330;-85